Hamilton, Michigan
Current Conditions -  °F | °C
As of 10:53 AM on Saturday 25 Oct 2014 (Local Time) from KBIV Reporting Station
Haze Haze  
Wind Chill: 60°   Ceiling: 900
Heat Index: 60°   Visibility: 6mi
Dew Point: 55°   Wind: 12mph
Humidity: 83%   Direction: 280°W
Pressure: 29.88"   Gusts: 17mph
Location:  42.68°N, 86.01°W
Report Text: KBIV 251453Z AUTO 28010G15KT 6SM HZ BKN009 OVC015 16/13 A2988 RMK AO2 CIG 007V011 SLPNO T01560128 53003
Loading
Personal Weather Stations






























Interactive Weather Map
Tropical Storm Tracking
New forecast layout! Learn more

10-Day Weather Forecast

Advertisements
Track Severe Weather on mobile